createdAt,value
2023-02-06T00:01:20.924Z,98775.00
2023-02-06T00:03:48.241Z,98766.00
2023-02-06T00:06:15.147Z,98768.00
2023-02-06T00:08:42.315Z,98766.00
2023-02-06T00:11:14.042Z,98766.00
2023-02-06T00:13:41.002Z,98768.00
2023-02-06T00:16:26.412Z,98775.00
2023-02-06T00:18:54.525Z,98781.00
2023-02-06T00:21:24.430Z,98785.00
2023-02-06T00:23:53.992Z,98794.00
2023-02-06T00:26:21.276Z,98787.00
2023-02-06T00:28:48.219Z,98786.00
2023-02-06T00:31:15.571Z,98782.00
2023-02-06T00:33:42.532Z,98776.00
2023-02-06T00:36:10.069Z,98787.00
2023-02-06T00:38:38.105Z,98769.00
2023-02-06T00:41:05.481Z,98775.00
2023-02-06T00:43:32.578Z,98781.00
2023-02-06T00:45:59.438Z,98778.00
2023-02-06T00:48:26.288Z,98786.00
2023-02-06T00:50:53.865Z,98779.00
2023-02-06T00:53:21.458Z,98783.00
2023-02-06T00:55:48.544Z,98775.00
2023-02-06T00:58:15.549Z,98777.00
2023-02-06T01:00:42.384Z,98778.00
2023-02-06T01:03:09.166Z,98781.00
2023-02-06T01:05:36.275Z,98784.00
2023-02-06T01:08:04.508Z,98779.00
2023-02-06T01:10:32.056Z,98772.00
2023-02-06T01:12:58.934Z,98775.00
2023-02-06T01:15:26.096Z,98767.00
2023-02-06T01:17:52.888Z,98773.00
2023-02-06T01:20:19.824Z,98770.00
2023-02-06T01:22:46.615Z,98779.00
2023-02-06T01:25:13.380Z,98782.00
2023-02-06T01:27:40.205Z,98783.00
2023-02-06T01:30:08.655Z,98788.00
2023-02-06T01:32:40.342Z,98791.00
2023-02-06T01:35:09.324Z,98785.00
2023-02-06T01:37:37.596Z,98793.00
2023-02-06T01:40:12.356Z,98784.00
2023-02-06T01:42:39.355Z,98781.00
2023-02-06T01:45:21.414Z,98782.00
2023-02-06T01:47:50.090Z,98788.00
2023-02-06T01:50:16.903Z,98779.00
2023-02-06T01:52:43.859Z,98787.00
2023-02-06T01:55:10.670Z,98786.00
2023-02-06T01:57:39.140Z,98788.00
2023-02-06T02:00:10.078Z,98773.00
2023-02-06T02:02:39.783Z,98771.00
2023-02-06T02:05:10.170Z,98773.00
2023-02-06T02:07:42.325Z,98768.00
2023-02-06T02:10:09.446Z,98757.00
2023-02-06T02:12:36.227Z,98760.00
2023-02-06T02:15:03.587Z,98767.00
2023-02-06T02:17:58.328Z,98774.00
2023-02-06T02:20:55.819Z,98776.00
2023-02-06T02:24:00.584Z,98760.00
2023-02-06T02:27:18.919Z,98763.00
2023-02-06T02:30:21.157Z,98764.00
2023-02-06T02:33:48.399Z,98772.00
2023-02-06T02:36:25.629Z,98762.00
2023-02-06T02:39:17.787Z,98762.00
2023-02-06T02:42:20.959Z,98760.00
2023-02-06T02:45:15.228Z,98756.00
2023-02-06T02:47:54.211Z,98759.00
2023-02-06T02:50:21.333Z,98749.00
2023-02-06T02:52:48.224Z,98750.00
2023-02-06T02:55:22.682Z,98750.00
2023-02-06T02:57:55.781Z,98752.00
2023-02-06T03:00:25.159Z,98752.00
2023-02-06T03:02:54.434Z,98756.00
2023-02-06T03:05:25.970Z,98767.00
2023-02-06T03:08:17.229Z,98756.00
2023-02-06T03:11:09.102Z,98742.00
2023-02-06T03:13:48.715Z,98749.00
2023-02-06T03:16:38.987Z,98755.00
2023-02-06T03:19:19.301Z,98753.00
2023-02-06T03:21:47.533Z,98755.00
2023-02-06T03:24:20.436Z,98758.00
2023-02-06T03:26:51.979Z,98776.00
2023-02-06T03:29:20.327Z,98770.00
2023-02-06T03:31:52.635Z,98763.00
2023-02-06T03:34:25.876Z,98769.00
2023-02-06T03:36:53.417Z,98765.00
2023-02-06T03:39:21.217Z,98763.00
2023-02-06T03:41:49.502Z,98768.00
2023-02-06T03:44:23.910Z,98773.00
2023-02-06T03:46:52.585Z,98758.00
2023-02-06T03:49:22.412Z,98761.00
2023-02-06T03:51:57.002Z,98763.00
2023-02-06T03:54:25.981Z,98763.00
2023-02-06T03:56:57.033Z,98763.00
2023-02-06T03:59:24.472Z,98770.00
2023-02-06T04:01:57.629Z,98759.00
2023-02-06T04:04:31.154Z,98771.00
2023-02-06T04:07:03.887Z,98769.00
2023-02-06T04:09:30.652Z,98772.00
2023-02-06T04:11:57.436Z,98779.00
2023-02-06T04:14:24.176Z,98776.00
2023-02-06T04:16:51.416Z,98773.00
2023-02-06T04:19:18.262Z,98768.00
2023-02-06T04:21:45.034Z,98757.00
2023-02-06T04:24:11.773Z,98768.00
2023-02-06T04:26:38.528Z,98756.00
2023-02-06T04:29:05.298Z,98761.00
2023-02-06T04:31:33.349Z,98750.00
2023-02-06T04:34:00.162Z,98761.00
2023-02-06T04:36:26.948Z,98754.00
2023-02-06T04:38:53.748Z,98749.00
2023-02-06T04:41:20.575Z,98748.00
2023-02-06T04:43:47.323Z,98747.00
2023-02-06T04:46:14.115Z,98759.00
2023-02-06T04:48:40.902Z,98757.00
2023-02-06T04:51:07.747Z,98755.00
2023-02-06T04:53:34.682Z,98749.00
2023-02-06T04:56:04.392Z,98752.00
2023-02-06T04:58:31.747Z,98749.00
2023-02-06T05:00:58.567Z,98739.00
2023-02-06T05:03:25.401Z,98748.00
2023-02-06T05:05:53.015Z,98756.00
2023-02-06T05:08:19.846Z,98746.00
2023-02-06T05:10:46.665Z,98755.00
2023-02-06T05:13:13.408Z,98752.00
2023-02-06T05:15:40.332Z,98753.00
2023-02-06T05:18:07.086Z,98749.00
2023-02-06T05:20:34.259Z,98747.00
2023-02-06T05:23:01.211Z,98763.00
2023-02-06T05:25:28.045Z,98768.00
2023-02-06T05:27:55.428Z,98768.00
2023-02-06T05:30:22.216Z,98765.00
2023-02-06T05:32:49.116Z,98768.00
2023-02-06T05:35:15.947Z,98760.00
2023-02-06T05:37:42.738Z,98764.00
2023-02-06T05:40:11.096Z,98756.00
2023-02-06T05:42:37.891Z,98755.00
2023-02-06T05:45:05.095Z,98754.00
2023-02-06T05:47:31.830Z,98746.00
2023-02-06T05:49:58.579Z,98739.00
2023-02-06T05:52:25.346Z,98746.00
2023-02-06T05:54:52.127Z,98755.00
2023-02-06T05:57:18.970Z,98748.00
2023-02-06T05:59:45.774Z,98745.00
2023-02-06T06:02:12.586Z,98746.00
2023-02-06T06:04:39.401Z,98746.00
2023-02-06T06:07:06.291Z,98750.00
2023-02-06T06:09:33.114Z,98750.00
2023-02-06T06:11:59.885Z,98753.00
2023-02-06T06:14:26.781Z,98746.00
2023-02-06T06:16:53.633Z,98747.00
2023-02-06T06:19:20.516Z,98746.00
2023-02-06T06:21:47.285Z,98749.00
2023-02-06T06:24:14.043Z,98747.00
2023-02-06T06:26:40.800Z,98748.00
2023-02-06T06:29:07.566Z,98770.00
2023-02-06T06:31:34.491Z,98754.00
2023-02-06T06:34:01.310Z,98767.00
2023-02-06T06:36:28.241Z,98758.00
2023-02-06T06:38:55.103Z,98761.00
2023-02-06T06:41:21.880Z,98760.00
2023-02-06T06:43:51.224Z,98764.00
2023-02-06T06:46:18.929Z,98764.00
2023-02-06T06:48:45.685Z,98758.00
2023-02-06T06:51:12.471Z,98755.00
2023-02-06T06:53:40.022Z,98758.00
2023-02-06T06:56:10.654Z,98756.00
2023-02-06T06:58:37.534Z,98766.00
2023-02-06T07:01:05.109Z,98759.00
2023-02-06T07:03:32.101Z,98767.00
2023-02-06T07:05:58.930Z,98757.00
2023-02-06T07:08:25.711Z,98772.00
2023-02-06T07:10:52.463Z,98780.00
2023-02-06T07:13:19.213Z,98778.00
2023-02-06T07:15:46.068Z,98788.00
2023-02-06T07:18:12.894Z,98782.00
2023-02-06T07:20:39.802Z,98778.00
2023-02-06T07:23:06.889Z,98768.00
2023-02-06T07:25:33.994Z,98785.00
2023-02-06T07:28:01.055Z,98783.00
2023-02-06T07:30:27.904Z,98784.00
2023-02-06T07:32:54.686Z,98783.00
2023-02-06T07:35:21.471Z,98780.00
2023-02-06T07:37:48.229Z,98767.00
2023-02-06T07:40:14.984Z,98766.00
2023-02-06T07:42:41.739Z,98767.00
2023-02-06T07:45:09.212Z,98769.00
2023-02-06T07:47:36.006Z,98776.00
2023-02-06T07:50:04.305Z,98772.00
2023-02-06T07:52:31.589Z,98778.00
2023-02-06T07:54:58.344Z,98785.00
2023-02-06T07:57:25.088Z,98787.00
2023-02-06T07:59:51.911Z,98781.00
2023-02-06T08:02:18.662Z,98782.00
2023-02-06T08:04:45.489Z,98775.00
2023-02-06T08:07:14.931Z,98781.00
2023-02-06T08:09:42.343Z,98773.00
2023-02-06T08:12:11.717Z,98780.00
2023-02-06T08:14:38.812Z,98785.00
2023-02-06T08:17:05.584Z,98783.00
2023-02-06T08:19:32.385Z,98793.00
2023-02-06T08:21:59.164Z,98795.00
2023-02-06T08:24:25.971Z,98784.00
2023-02-06T08:26:52.763Z,98784.00
2023-02-06T08:29:19.572Z,98772.00
2023-02-06T08:31:46.551Z,98771.00
2023-02-06T08:34:15.090Z,98764.00
2023-02-06T08:36:43.643Z,98767.00
2023-02-06T08:39:13.864Z,98764.00
2023-02-06T08:41:42.685Z,98776.00
2023-02-06T08:44:16.133Z,98775.00
2023-02-06T08:46:45.538Z,98772.00
2023-02-06T08:49:20.628Z,98769.00
2023-02-06T08:51:50.223Z,98773.00
2023-02-06T08:54:23.192Z,98764.00
2023-02-06T08:56:51.800Z,98759.00
2023-02-06T08:59:20.119Z,98770.00
2023-02-06T09:01:49.085Z,98772.00
2023-02-06T09:04:16.695Z,98769.00
2023-02-06T09:06:45.901Z,98760.00
2023-02-06T09:09:12.805Z,98768.00
2023-02-06T09:11:39.862Z,98764.00
2023-02-06T09:14:08.854Z,98758.00
2023-02-06T09:16:37.717Z,98761.00
2023-02-06T09:19:05.017Z,98767.00
2023-02-06T09:21:34.554Z,98748.00
2023-02-06T09:24:05.301Z,98750.00
2023-02-06T09:26:44.769Z,98758.00
2023-02-06T09:29:20.425Z,98762.00
2023-02-06T09:31:47.753Z,98755.00
2023-02-06T09:34:14.774Z,98763.00
2023-02-06T09:36:41.681Z,98767.00
2023-02-06T09:39:09.531Z,98771.00
2023-02-06T09:41:45.605Z,98761.00
2023-02-06T09:44:32.225Z,98770.00
2023-02-06T09:47:26.471Z,98773.00
2023-02-06T09:50:02.570Z,98777.00
2023-02-06T09:52:54.507Z,98787.00
2023-02-06T09:55:40.904Z,98776.00
2023-02-06T09:59:10.311Z,98782.00
2023-02-06T10:02:10.735Z,98784.00
2023-02-06T10:04:42.752Z,98784.00
2023-02-06T10:07:47.986Z,98778.00
2023-02-06T10:10:27.208Z,98768.00
2023-02-06T10:13:05.361Z,98775.00
2023-02-06T10:15:38.884Z,98765.00
2023-02-06T10:18:24.735Z,98762.00
2023-02-06T10:20:57.180Z,98767.00
2023-02-06T10:23:37.181Z,98741.00
2023-02-06T10:26:17.002Z,98737.00
2023-02-06T10:28:53.050Z,98747.00
2023-02-06T10:31:25.413Z,98743.00
2023-02-06T10:34:35.624Z,98746.00
2023-02-06T10:37:15.656Z,98743.00
2023-02-06T10:40:19.620Z,98741.00
2023-02-06T10:43:19.929Z,98727.00
2023-02-06T10:46:13.872Z,98720.00
2023-02-06T10:48:55.630Z,98712.00
2023-02-06T10:51:38.465Z,98707.00
2023-02-06T10:54:16.125Z,98700.00
2023-02-06T10:56:45.475Z,98708.00
2023-02-06T10:59:34.657Z,98717.00
2023-02-06T11:02:41.507Z,98707.00
2023-02-06T11:05:16.268Z,98712.00
2023-02-06T11:07:48.973Z,98699.00
2023-02-06T11:10:22.392Z,98699.00
2023-02-06T11:13:11.180Z,98688.00
2023-02-06T11:16:09.197Z,98683.00
2023-02-06T11:18:40.913Z,98683.00
2023-02-06T11:21:09.950Z,98693.00
2023-02-06T11:23:36.809Z,98687.00
2023-02-06T11:26:19.396Z,98680.00
2023-02-06T11:28:57.146Z,98671.00
2023-02-06T11:31:58.846Z,98671.00
2023-02-06T11:34:34.395Z,98668.00
2023-02-06T11:37:27.083Z,98667.00
2023-02-06T11:39:53.837Z,98661.00
2023-02-06T11:42:25.523Z,98672.00
2023-02-06T11:44:53.788Z,98662.00
2023-02-06T11:47:37.891Z,98659.00
2023-02-06T11:50:14.066Z,98664.00
2023-02-06T11:52:46.660Z,98663.00
2023-02-06T11:55:35.179Z,98657.00
2023-02-06T11:58:26.361Z,98668.00
2023-02-06T12:00:53.068Z,98654.00
2023-02-06T12:04:00.395Z,98658.00
2023-02-06T12:06:36.386Z,98656.00
2023-02-06T12:09:11.337Z,98659.00
2023-02-06T12:11:46.540Z,98657.00
2023-02-06T12:14:31.759Z,98653.00
2023-02-06T12:17:03.209Z,98660.00
2023-02-06T12:19:41.413Z,98662.00
2023-02-06T12:22:22.342Z,98660.00
2023-02-06T12:24:52.643Z,98652.00
2023-02-06T12:27:39.531Z,98648.00
2023-02-06T12:30:37.686Z,98654.00
2023-02-06T12:33:22.860Z,98651.00
2023-02-06T12:35:59.415Z,98641.00
2023-02-06T12:38:54.043Z,98643.00
2023-02-06T12:41:26.876Z,98638.00
2023-02-06T12:44:07.274Z,98629.00
2023-02-06T12:46:34.142Z,98634.00
2023-02-06T12:49:35.413Z,98643.00
2023-02-06T12:52:19.220Z,98633.00
2023-02-06T12:54:57.178Z,98633.00
2023-02-06T12:57:29.750Z,98628.00
2023-02-06T13:00:22.836Z,98629.00
2023-02-06T13:03:33.251Z,98625.00
2023-02-06T13:06:21.564Z,98625.00
2023-02-06T13:09:03.836Z,98626.00
2023-02-06T13:11:38.960Z,98622.00
2023-02-06T13:14:19.333Z,98615.00
2023-02-06T13:16:55.951Z,98613.00
2023-02-06T13:19:25.268Z,98626.00
2023-02-06T13:22:23.615Z,98637.00
2023-02-06T13:24:51.542Z,98640.00
2023-02-06T13:27:25.305Z,98630.00
2023-02-06T13:29:53.939Z,98630.00
2023-02-06T13:32:24.077Z,98630.00
2023-02-06T13:34:50.786Z,98631.00
2023-02-06T13:37:41.536Z,98621.00
2023-02-06T13:40:23.233Z,98621.00
2023-02-06T13:43:09.049Z,98609.00
2023-02-06T13:45:57.107Z,98613.00
2023-02-06T13:49:08.133Z,98607.00
2023-02-06T13:51:50.453Z,98611.00
2023-02-06T13:54:39.792Z,98611.00
2023-02-06T13:57:32.822Z,98600.00
2023-02-06T14:00:25.175Z,98614.00
2023-02-06T14:03:03.784Z,98618.00
2023-02-06T14:05:47.993Z,98612.00
2023-02-06T14:08:24.518Z,98617.00
2023-02-06T14:11:11.927Z,98619.00
2023-02-06T14:14:14.719Z,98624.00
2023-02-06T14:17:16.974Z,98621.00
2023-02-06T14:20:14.430Z,98607.00
2023-02-06T14:23:00.320Z,98621.00
2023-02-06T14:26:08.813Z,98612.00
2023-02-06T14:28:57.131Z,98612.00
2023-02-06T14:31:46.096Z,98607.00
2023-02-06T14:34:30.505Z,98602.00
2023-02-06T14:37:45.326Z,98591.00
2023-02-06T14:40:26.051Z,98602.00
2023-02-06T14:42:57.881Z,98616.00
2023-02-06T14:45:41.957Z,98611.00
2023-02-06T14:48:47.253Z,98621.00
2023-02-06T14:51:35.656Z,98624.00
2023-02-06T14:54:07.428Z,98620.00
2023-02-06T14:56:38.158Z,98625.00
2023-02-06T14:59:18.189Z,98633.00
2023-02-06T15:01:49.161Z,98628.00
2023-02-06T15:04:27.078Z,98621.00
2023-02-06T15:07:03.781Z,98621.00
2023-02-06T15:09:43.844Z,98621.00
2023-02-06T15:12:24.576Z,98633.00
2023-02-06T15:15:02.566Z,98633.00
2023-02-06T15:17:31.405Z,98624.00
2023-02-06T15:20:33.230Z,98627.00
2023-02-06T15:23:16.898Z,98630.00
2023-02-06T15:26:05.561Z,98639.00
2023-02-06T15:28:35.285Z,98646.00
2023-02-06T15:31:02.854Z,98633.00
2023-02-06T15:33:34.449Z,98633.00
2023-02-06T15:36:04.313Z,98630.00
2023-02-06T15:38:33.374Z,98637.00
2023-02-06T15:41:08.470Z,98643.00
2023-02-06T15:43:36.208Z,98646.00
2023-02-06T15:46:05.737Z,98644.00
2023-02-06T15:48:43.657Z,98641.00
2023-02-06T15:51:22.625Z,98636.00
2023-02-06T15:53:52.076Z,98635.00
2023-02-06T15:56:27.923Z,98636.00
2023-02-06T15:59:02.736Z,98632.00
2023-02-06T16:01:34.536Z,98636.00
2023-02-06T16:04:08.977Z,98631.00
2023-02-06T16:06:36.148Z,98636.00
2023-02-06T16:09:07.161Z,98637.00
2023-02-06T16:11:47.738Z,98637.00
2023-02-06T16:14:28.902Z,98640.00
2023-02-06T16:17:20.029Z,98633.00
2023-02-06T16:19:56.351Z,98642.00
2023-02-06T16:22:33.676Z,98634.00
2023-02-06T16:25:31.810Z,98644.00
2023-02-06T16:28:00.025Z,98647.00
2023-02-06T16:30:36.444Z,98650.00
2023-02-06T16:33:42.213Z,98649.00
2023-02-06T16:36:13.676Z,98648.00
2023-02-06T16:38:41.281Z,98652.00
2023-02-06T16:41:38.975Z,98662.00
2023-02-06T16:44:15.408Z,98663.00
2023-02-06T16:46:42.248Z,98662.00
2023-02-06T16:49:22.787Z,98662.00
2023-02-06T16:51:53.462Z,98667.00
2023-02-06T16:54:29.026Z,98670.00
2023-02-06T16:57:07.256Z,98678.00
2023-02-06T16:59:34.046Z,98670.00
2023-02-06T17:02:00.951Z,98675.00
2023-02-06T17:04:27.692Z,98681.00
2023-02-06T17:06:54.438Z,98688.00
2023-02-06T17:09:21.213Z,98696.00
2023-02-06T17:11:48.035Z,98704.00
2023-02-06T17:14:14.826Z,98697.00
2023-02-06T17:16:41.622Z,98690.00
2023-02-06T17:19:08.402Z,98695.00
2023-02-06T17:21:35.186Z,98696.00
2023-02-06T17:24:01.942Z,98705.00
2023-02-06T17:26:28.745Z,98699.00
2023-02-06T17:28:55.523Z,98701.00
2023-02-06T17:31:22.950Z,98698.00
2023-02-06T17:33:50.260Z,98700.00
2023-02-06T17:36:29.113Z,98700.00
2023-02-06T17:38:58.836Z,98688.00
2023-02-06T17:41:27.096Z,98681.00
2023-02-06T17:43:53.888Z,98681.00
2023-02-06T17:46:20.756Z,98684.00
2023-02-06T17:48:47.616Z,98675.00
2023-02-06T17:51:14.544Z,98673.00
2023-02-06T17:53:41.416Z,98661.00
2023-02-06T17:56:13.134Z,98669.00
2023-02-06T17:58:41.421Z,98671.00
2023-02-06T18:01:20.662Z,98670.00
2023-02-06T18:03:48.066Z,98668.00
2023-02-06T18:06:15.327Z,98662.00
2023-02-06T18:08:42.856Z,98652.00
2023-02-06T18:11:19.666Z,98648.00
2023-02-06T18:13:49.116Z,98647.00
2023-02-06T18:16:20.585Z,98644.00
2023-02-06T18:18:47.702Z,98643.00
2023-02-06T18:21:15.598Z,98643.00
2023-02-06T18:23:42.413Z,98632.00
2023-02-06T18:26:10.106Z,98630.00
2023-02-06T18:28:38.625Z,98627.00
2023-02-06T18:31:06.527Z,98627.00
2023-02-06T18:33:35.171Z,98620.00
2023-02-06T18:36:06.859Z,98604.00
2023-02-06T18:38:34.092Z,98605.00
2023-02-06T18:41:05.972Z,98602.00
2023-02-06T18:43:33.346Z,98602.00
2023-02-06T18:46:07.068Z,98604.00
2023-02-06T18:48:33.848Z,98609.00
2023-02-06T18:51:00.864Z,98606.00
2023-02-06T18:53:27.900Z,98609.00
2023-02-06T18:55:58.723Z,98599.00
2023-02-06T18:58:25.472Z,98596.00
2023-02-06T19:00:52.282Z,98593.00
2023-02-06T19:03:19.099Z,98580.00
2023-02-06T19:05:45.997Z,98588.00
2023-02-06T19:08:12.779Z,98578.00
2023-02-06T19:10:42.461Z,98578.00
2023-02-06T19:13:09.250Z,98581.00
2023-02-06T19:15:37.980Z,98579.00
2023-02-06T19:18:05.556Z,98580.00
2023-02-06T19:20:32.333Z,98581.00
2023-02-06T19:22:59.116Z,98576.00
2023-02-06T19:25:26.003Z,98568.00
2023-02-06T19:27:52.799Z,98570.00
2023-02-06T19:30:19.608Z,98558.00
2023-02-06T19:32:48.576Z,98561.00
2023-02-06T19:35:17.144Z,98550.00
2023-02-06T19:37:43.938Z,98546.00
2023-02-06T19:40:11.135Z,98524.00
2023-02-06T19:42:38.934Z,98523.00
2023-02-06T19:45:06.874Z,98524.00
2023-02-06T19:47:35.066Z,98527.00
2023-02-06T19:50:02.009Z,98541.00
2023-02-06T19:52:28.780Z,98545.00
2023-02-06T19:54:55.537Z,98560.00
2023-02-06T19:57:22.289Z,98559.00
2023-02-06T19:59:49.152Z,98556.00
2023-02-06T20:02:16.314Z,98561.00
2023-02-06T20:04:45.059Z,98565.00
2023-02-06T20:07:12.161Z,98554.00
2023-02-06T20:09:41.761Z,98547.00
2023-02-06T20:12:12.274Z,98562.00
2023-02-06T20:14:39.274Z,98565.00
2023-02-06T20:17:06.295Z,98557.00
2023-02-06T20:19:33.442Z,98562.00
2023-02-06T20:22:00.857Z,98564.00
2023-02-06T20:24:31.396Z,98565.00
2023-02-06T20:27:01.777Z,98552.00
2023-02-06T20:29:32.716Z,98556.00
2023-02-06T20:32:00.925Z,98545.00
2023-02-06T20:34:28.743Z,98549.00
2023-02-06T20:36:55.794Z,98547.00
2023-02-06T20:39:22.799Z,98541.00
2023-02-06T20:41:50.327Z,98537.00
2023-02-06T20:44:19.216Z,98541.00
2023-02-06T20:46:46.445Z,98544.00
2023-02-06T20:49:26.287Z,98547.00
2023-02-06T20:51:53.701Z,98534.00
2023-02-06T20:54:21.562Z,98547.00
2023-02-06T20:56:49.179Z,98544.00
2023-02-06T20:59:18.464Z,98537.00
2023-02-06T21:01:45.516Z,98554.00
2023-02-06T21:04:14.601Z,98548.00
2023-02-06T21:06:41.807Z,98547.00
2023-02-06T21:09:09.663Z,98542.00
2023-02-06T21:11:45.705Z,98540.00
2023-02-06T21:14:13.699Z,98526.00
2023-02-06T21:16:42.424Z,98525.00
2023-02-06T21:19:12.095Z,98537.00
2023-02-06T21:21:39.568Z,98525.00
2023-02-06T21:24:07.115Z,98522.00
2023-02-06T21:26:34.056Z,98522.00
2023-02-06T21:29:05.986Z,98539.00
2023-02-06T21:31:38.136Z,98534.00
2023-02-06T21:34:13.326Z,98521.00
2023-02-06T21:36:40.968Z,98513.00
2023-02-06T21:39:08.894Z,98514.00
2023-02-06T21:41:36.929Z,98513.00
2023-02-06T21:44:04.038Z,98513.00
2023-02-06T21:46:31.026Z,98503.00
2023-02-06T21:48:57.984Z,98500.00
2023-02-06T21:51:24.856Z,98496.00
2023-02-06T21:53:51.662Z,98485.00
2023-02-06T21:56:23.049Z,98482.00
2023-02-06T21:58:50.962Z,98479.00
2023-02-06T22:01:27.507Z,98492.00
2023-02-06T22:03:56.723Z,98488.00
2023-02-06T22:06:23.684Z,98476.00
2023-02-06T22:08:52.911Z,98482.00
2023-02-06T22:11:30.364Z,98488.00
2023-02-06T22:14:06.811Z,98489.00
2023-02-06T22:16:34.782Z,98485.00
2023-02-06T22:19:01.699Z,98490.00
2023-02-06T22:21:31.017Z,98483.00
2023-02-06T22:24:01.904Z,98483.00
2023-02-06T22:26:33.781Z,98485.00
2023-02-06T22:29:00.861Z,98484.00
2023-02-06T22:31:31.020Z,98478.00
2023-02-06T22:33:59.808Z,98473.00
2023-02-06T22:36:30.714Z,98477.00
2023-02-06T22:39:09.529Z,98480.00
2023-02-06T22:41:40.762Z,98473.00
2023-02-06T22:44:08.310Z,98466.00
2023-02-06T22:46:37.847Z,98458.00
2023-02-06T22:49:06.916Z,98454.00
2023-02-06T22:51:34.269Z,98449.00
2023-02-06T22:54:01.136Z,98449.00
2023-02-06T22:56:31.836Z,98439.00
2023-02-06T22:59:01.822Z,98431.00
2023-02-06T23:01:48.708Z,98438.00
2023-02-06T23:04:24.920Z,98439.00
2023-02-06T23:06:52.813Z,98420.00
2023-02-06T23:09:32.309Z,98426.00
2023-02-06T23:12:00.982Z,98413.00
2023-02-06T23:14:30.454Z,98409.00
2023-02-06T23:16:59.146Z,98417.00
2023-02-06T23:19:26.417Z,98424.00
2023-02-06T23:21:53.599Z,98421.00
2023-02-06T23:24:20.555Z,98418.00
2023-02-06T23:26:49.897Z,98424.00
2023-02-06T23:29:21.484Z,98415.00
2023-02-06T23:31:49.045Z,98410.00
2023-02-06T23:34:17.152Z,98414.00
2023-02-06T23:36:46.918Z,98408.00
2023-02-06T23:39:14.181Z,98413.00
2023-02-06T23:41:41.270Z,98414.00
2023-02-06T23:44:10.253Z,98421.00
2023-02-06T23:46:38.849Z,98412.00
2023-02-06T23:49:06.419Z,98403.00
2023-02-06T23:51:33.546Z,98402.00
2023-02-06T23:54:00.503Z,98409.00
2023-02-06T23:56:30.220Z,98400.00
2023-02-06T23:58:58.815Z,98395.00
